Latest Coastal Weather Observations for Parndana

IDS60701

Issued at 1:51 pm CDT Thursday 19 October 2017 (issued every 10 minutes, with the page automatically refreshed every 10 minutes)

About coastal observations | Map of coastal stations | Coastal observations for SA | Marine services | Other Formats
Station Details ID: 022843 Name: PARNDANA CFS AWS Lat: -35.79 Lon: 137.25 Height: 165.0 m
Data from the previous 72 hours. | See also: Recent months at Parndana
Date/Time
CDT
Temp
°C
Wind Pressure Rain since
9am
mm
Weather Cloud Vis
km
Sea
Height
m
Swell
Dir  Spd
kts
Gust
kts
hPa Trend Height
m
Period
s
Dir
19/01:30pm 17.4 SW 12 23 - - 0.0 - - - - - - -
19/01:00pm 17.4 WSW 11 19 - - 0.0 - - - - - - -
19/12:30pm 16.8 SW 12 17 - - 0.0 - - - - - - -
19/12:00pm 16.5 SW 11 17 - - 0.0 - - - - - - -
19/11:30am 16.1 SW 12 17 - - 0.0 - - - - - - -
19/11:00am 15.8 SW 11 17 - - 0.0 - - - - - - -
19/10:30am 15.1 SW 14 19 - - 0.0 - - - - - - -
19/10:00am 14.8 SW 14 19 - - 0.0 - - - - - - -
19/09:30am 14.7 SSW 12 18 - - 0.0 - - - - - - -
19/09:00am 13.6 SW 13 17 - - 3.0 - - - - - - -
19/08:30am 13.7 SW 12 19 - - 3.0 - - - - - - -
19/08:00am 13.0 SSW 12 17 - - 3.0 - - - - - - -
19/07:30am 12.6 SW 11 14 - - 3.0 - - - - - - -
19/07:00am 12.3 SW 12 18 - - 3.0 - - - - - - -
19/06:30am 13.1 SSW 14 21 - - 3.0 - - - - - - -
19/06:00am 13.4 SSW 10 16 - - 3.0 - - - - - - -
19/05:30am 13.5 SW 12 18 - - 3.0 - - - - - - -
19/05:00am 13.2 SW 12 17 - - 3.0 - - - - - - -
19/04:30am 13.1 SSW 10 13 - - 3.0 - - - - - - -
19/04:00am 13.4 SW 9 12 - - 3.0 - - - - - - -
19/03:30am 14.1 SSW 10 13 - - 3.0 - - - - - - -
19/03:00am 15.3 SW 8 13 - - 3.0 - - - - - - -
19/02:30am 16.5 W 7 9 - - 3.0 - - - - - - -
19/02:00am 17.1 NW 7 10 - - 3.0 - - - - - - -
19/01:30am 17.8 NNW 9 12 - - 3.0 - - - - - - -
19/01:00am 18.1 N 9 12 - - 3.0 - - - - - - -
19/12:30am 18.4 N 9 14 - - 3.0 - - - - - - -
19/12:00am 18.0 NNW 7 10 - - 3.0 - - - - - - -
 
Date/Time
CDT
Temp
°C
Wind Pressure Rain since
9am
mm
Weather Cloud Vis
km
Sea
Height
m
Swell
Dir  Spd
kts
Gust
kts
hPa Trend Height
m
Period
s
Dir
18/11:30pm 18.1 N 9 16 - - 3.0 - - - - - - -
18/11:00pm 17.8 N 9 12 - - 3.0 - - - - - - -
18/10:30pm 17.9 N 9 13 - - 2.6 - - - - - - -
18/10:00pm 18.0 N 7 9 - - 1.2 - - - - - - -
18/09:30pm 18.2 N 7 8 - - 0.8 - - - - - - -
18/09:00pm 18.7 NW 9 13 - - 0.2 Rain - - - - - -
18/08:30pm 19.5 WNW 6 9 - - 0.0 - - - - - - -
18/08:00pm 19.4 WNW 9 13 - - 0.0 - - - - - - -
18/07:30pm 19.4 WNW 7 11 - - 0.0 - - - - - - -
18/07:00pm 19.2 W 13 16 - - 0.0 - - - - - - -
18/06:30pm 20.8 W 11 14 - - 0.0 - - - - - - -
18/06:00pm 23.0 W 12 17 - - 0.0 - - - - - - -
18/05:30pm 24.6 WNW 6 7 - - 0.0 - - - - - - -
18/05:00pm 25.7 W 5 7 - - 0.0 - - - - - - -
18/04:30pm 27.1 NW 7 10 - - 0.0 - - - - - - -
18/04:00pm 27.2 NW 7 11 - - 0.0 - - - - - - -
18/03:30pm 27.1 NNW 8 10 - - 0.0 - - - - - - -
18/03:00pm 28.0 NNW 10 14 - - 0.0 - - - - - - -
18/02:30pm 27.7 N 12 17 - - 0.0 - - - - - - -
18/02:00pm 27.2 NNW 13 18 - - 0.0 - - - - - - -
18/01:30pm 26.0 NNW 13 22 - - 0.0 - - - - - - -
18/01:00pm 26.1 NNW 14 21 - - 0.0 - - - - - - -
18/12:30pm 26.4 NNW 16 24 - - 0.0 - - - - - - -
18/12:00pm 27.1 N 15 25 - - 0.0 - - - - - - -
18/11:59am 27.2 N 15 26 - - 0.0 - - - - - - -
18/11:30am 26.5 N 17 26 - - 0.0 - - - - - - -
18/11:00am 25.6 N 17 23 - - 0.0 - - - - - - -
18/10:30am 25.3 N 15 23 - - 0.0 - - - - - - -
18/10:00am 24.6 N 14 22 - - 0.0 - - - - - - -
18/09:30am 24.2 N 14 19 - - 0.0 - - - - - - -
18/09:00am 24.1 N 16 22 - - 0.0 - - - - - - -
18/08:30am 23.6 N 15 19 - - 0.0 - - - - - - -
18/08:00am 22.5 N 12 15 - - 0.0 - - - - - - -
18/07:30am 21.7 N 12 17 - - 0.0 - - - - - - -
18/07:00am 21.0 N 10 13 - - 0.0 - - - - - - -
18/06:30am 20.5 N 11 13 - - 0.0 - - - - - - -
18/06:00am 20.5 N 11 15 - - 0.0 - - - - - - -
18/05:30am 20.9 N 11 14 - - 0.0 - - - - - - -
18/05:00am 21.5 N 12 16 - - 0.0 - - - - - - -
18/04:30am 22.3 N 12 16 - - 0.0 - - - - - - -
18/04:00am 22.0 N 13 16 - - 0.0 - - - - - - -
18/03:30am 22.5 N 10 15 - - 0.0 - - - - - - -
18/03:00am 22.6 N 12 17 - - 0.0 - - - - - - -
18/02:30am 22.3 N 10 13 - - 0.0 - - - - - - -
18/02:00am 19.4 NNE 5 7 - - 0.0 - - - - - - -
18/01:30am 18.2 NNE 5 6 - - 0.0 - - - - - - -
18/01:00am 19.3 NE 8 12 - - 0.0 - - - - - - -
18/12:30am 20.0 NE 9 13 - - 0.0 - - - - - - -
18/12:00am 18.6 NNE 5 7 - - 0.0 - - - - - - -
 
Date/Time
CDT
Temp
°C
Wind Pressure Rain since
9am
mm
Weather Cloud Vis
km
Sea
Height
m
Swell
Dir  Spd
kts
Gust
kts
hPa Trend Height
m
Period
s
Dir
17/11:30pm 18.8 NE 7 9 - - 0.0 - - - - - - -
17/11:00pm 19.0 NNE 5 8 - - 0.0 - - - - - - -
17/10:30pm 19.5 NE 7 9 - - 0.0 - - - - - - -
17/10:00pm 19.7 NE 7 9 - - 0.0 - - - - - - -
17/09:30pm 19.1 NE 7 8 - - 0.0 - - - - - - -
17/09:00pm 19.9 NE 3 5 - - 0.0 - - - - - - -
17/08:30pm 20.0 NE 5 9 - - 0.0 - - - - - - -
17/08:00pm 21.6 NE 4 5 - - 0.0 - - - - - - -
17/07:30pm 23.1 NE 2 2 - - 0.0 - - - - - - -
17/07:00pm 23.1 NE 5 6 - - 0.0 - - - - - - -
17/06:30pm 24.4 - - - - - 0.0 - - - - - - -
17/06:00pm 25.5 NE 9 12 - - 0.0 - - - - - - -
17/05:30pm 26.9 NNE 10 15 - - 0.0 - - - - - - -
17/05:00pm 26.2 N 8 11 - - 0.0 - - - - - - -
17/04:30pm 26.5 N 9 15 - - 0.0 - - - - - - -
17/04:00pm 26.9 N 12 19 - - 0.0 - - - - - - -
17/03:30pm 27.6 N 12 21 - - 0.0 - - - - - - -
17/03:00pm 27.1 N 15 20 - - 0.0 - - - - - - -
17/02:30pm 27.0 N 16 22 - - 0.0 - - - - - - -
17/02:00pm 27.0 N 20 27 - - 0.0 - - - - - - -
17/01:51pm 27.0 N 18 29 - - 0.0 - - - - - - -
17/01:30pm 27.0 N 19 27 - - 0.0 - - - - - - -
17/01:00pm 26.9 N 20 28 - - 0.0 - - - - - - -
17/12:30pm 26.7 N 21 32 - - 0.0 - - - - - - -
17/12:22pm 26.5 N 21 32 - - 0.0 - - - - - - -
17/12:00pm 26.3 N 19 27 - - 0.0 - - - - - - -
17/11:46am 26.3 N 19 30 - - 0.0 - - - - - - -
17/11:30am 26.2 N 21 30 - - 0.0 - - - - - - -
17/11:21am 26.1 N 18 28 - - 0.0 - - - - - - -
17/11:00am 26.0 N 17 24 - - 0.0 - - - - - - -
17/10:30am 25.4 N 17 23 - - 0.0 - - - - - - -
17/10:00am 24.9 N 16 23 - - 0.0 - - - - - - -
17/09:30am 24.6 N 20 27 - - 0.0 - - - - - - -
17/09:00am 23.8 N 18 28 - - 0.2 - - - - - - -
17/08:30am 22.7 N 18 25 - - 0.2 - - - - - - -
17/08:00am 21.7 N 15 21 - - 0.2 - - - - - - -
17/07:30am 21.0 N 15 20 - - 0.2 - - - - - - -
17/07:00am 20.6 N 14 20 - - 0.2 - - - - - - -
17/06:30am 21.0 N 14 20 - - 0.2 - - - - - - -
17/06:00am 21.0 N 14 19 - - 0.2 - - - - - - -
17/05:30am 21.2 N 14 19 - - 0.2 - - - - - - -
17/05:00am 21.2 N 12 16 - - 0.2 - - - - - - -
17/04:30am 20.1 NNE 11 16 - - 0.2 - - - - - - -
17/04:00am 20.0 NNE 10 15 - - 0.2 - - - - - - -
17/03:30am 19.4 NE 11 15 - - 0.2 - - - - - - -
17/03:00am 19.3 NE 11 16 - - 0.2 - - - - - - -
17/02:30am 18.5 NE 10 13 - - 0.2 - - - - - - -
17/02:00am 18.8 NE 10 13 - - 0.2 - - - - - - -
17/01:30am 18.8 NE 11 17 - - 0.2 - - - - - - -
17/01:00am 19.4 NE 15 19 - - 0.2 - - - - - - -
17/12:30am 19.3 NE 13 18 - - 0.2 - - - - - - -
17/12:00am 19.9 NE 12 16 - - 0.2 - - - - - - -
 
Date/Time
CDT
Temp
°C
Wind Pressure Rain since
9am
mm
Weather Cloud Vis
km
Sea
Height
m
Swell
Dir  Spd
kts
Gust
kts
hPa Trend Height
m
Period
s
Dir
16/11:30pm 19.6 ENE 10 15 - - 0.2 - - - - - - -
16/11:00pm 18.8 ENE 11 14 - - 0.2 - - - - - - -
16/10:30pm 18.6 ENE 9 11 - - 0.2 - - - - - - -
16/10:00pm 18.9 ENE 11 14 - - 0.2 - - - - - - -
16/09:30pm 19.4 ENE 10 13 - - 0.2 - - - - - - -
16/09:00pm 18.3 E 6 8 - - 0.2 - - - - - - -
16/08:30pm 19.6 E 5 7 - - 0.2 - - - - - - -
16/08:00pm 19.5 E 6 8 - - 0.2 - - - - - - -
16/07:30pm 20.5 E 5 7 - - 0.2 - - - - - - -
16/07:00pm 21.6 ENE 6 8 - - 0.2 - - - - - - -
16/06:30pm 23.3 - - - - - 0.2 - - - - - - -
16/06:00pm 24.5 - - - - - 0.2 - - - - - - -
16/05:30pm 25.2 - - - - - 0.2 - - - - - - -
16/05:00pm 25.6 - - - - - 0.2 - - - - - - -
16/04:30pm 26.0 - - - - - 0.2 - - - - - - -
16/04:00pm 26.1 - - - - - 0.2 - - - - - - -
16/03:30pm 26.4 NE 10 14 - - 0.2 - - - - - - -
16/03:00pm 26.4 NE 9 13 - - 0.2 - - - - - - -
16/02:30pm 26.4 NE 8 11 - - 0.2 - - - - - - -
16/02:00pm 26.2 NE 8 13 - - 0.2 - - - - - - -

Other Formats:

Comma delimited format used in spreadsheet applications
http://www.bom.gov.au/fwo/IDS60701/IDS60701.94807.axf

JavaScript Object Notation format (JSON) in row-major order
http://www.bom.gov.au/fwo/IDS60701/IDS60701.94807.json